createdAt,value
2019-03-29T00:01:42.447Z,100021.28
2019-03-29T00:04:10.961Z,100021.41
2019-03-29T00:06:39.479Z,100022.56
2019-03-29T00:09:08.516Z,100017.58
2019-03-29T00:11:37.107Z,100021.15
2019-03-29T00:14:05.670Z,100022.82
2019-03-29T00:16:34.189Z,100018.61
2019-03-29T00:19:03.052Z,100022.57
2019-03-29T00:21:31.710Z,100016.98
2019-03-29T00:24:06.742Z,100026.91
2019-03-29T00:26:30.464Z,100017.91
2019-03-29T00:28:58.958Z,100020.81
2019-03-29T00:31:27.499Z,100026.44
2019-03-29T00:33:56.323Z,100023.53
2019-03-29T00:36:25.874Z,100020.23
2019-03-29T00:38:54.425Z,100010.02
2019-03-29T00:41:22.963Z,100008.34
2019-03-29T00:43:51.452Z,100010.11
2019-03-29T00:46:19.944Z,100017.14
2019-03-29T00:48:48.466Z,100014.34
2019-03-29T00:51:16.964Z,100022.12
2019-03-29T00:53:45.492Z,100022.23
2019-03-29T00:56:14.284Z,100023.03
2019-03-29T00:58:42.823Z,100025.62
2019-03-29T01:01:11.480Z,100020.70
2019-03-29T01:03:39.996Z,100019.72
2019-03-29T01:06:08.614Z,100018.25
2019-03-29T01:08:37.963Z,100021.09
2019-03-29T01:11:06.668Z,100022.08
2019-03-29T01:13:35.160Z,100021.81
2019-03-29T01:16:03.757Z,100024.05
2019-03-29T01:18:32.237Z,100020.08
2019-03-29T01:21:00.870Z,100022.31
2019-03-29T01:23:29.354Z,100018.47
2019-03-29T01:25:57.852Z,100017.59
2019-03-29T01:28:26.354Z,100014.19
2019-03-29T01:30:54.844Z,100015.16
2019-03-29T01:33:23.347Z,100018.83
2019-03-29T01:35:51.843Z,100014.34
2019-03-29T01:38:22.194Z,100019.78
2019-03-29T01:40:50.574Z,100012.47
2019-03-29T01:43:19.166Z,100011.61
2019-03-29T01:45:47.660Z,100006.31
2019-03-29T01:48:16.193Z,100010.31
2019-03-29T01:50:44.834Z,100003.36
2019-03-29T01:53:13.317Z,100014.29
2019-03-29T01:55:41.837Z,100017.52
2019-03-29T01:58:10.327Z,100015.64
2019-03-29T02:00:38.834Z,100016.61
2019-03-29T02:03:07.432Z,100007.87
2019-03-29T02:05:35.984Z,100016.87
2019-03-29T02:08:05.065Z,100007.81
2019-03-29T02:10:34.022Z,100021.16
2019-03-29T02:13:02.516Z,100016.63
2019-03-29T02:15:31.083Z,100017.70
2019-03-29T02:18:00.869Z,100014.39
2019-03-29T02:20:29.360Z,100017.75
2019-03-29T02:22:57.933Z,100020.92
2019-03-29T02:25:26.452Z,100033.03
2019-03-29T02:27:54.947Z,100027.30
2019-03-29T02:30:23.448Z,100029.15
2019-03-29T02:32:52.803Z,100022.30
2019-03-29T02:35:21.700Z,100024.44
2019-03-29T02:37:50.192Z,100028.74
2019-03-29T02:40:18.728Z,100027.10
2019-03-29T02:42:47.215Z,100020.34
2019-03-29T02:45:15.777Z,100027.80
2019-03-29T02:47:44.303Z,100032.41
2019-03-29T02:50:13.244Z,100026.06
2019-03-29T02:52:41.802Z,100035.89
2019-03-29T02:55:10.763Z,100037.77
2019-03-29T02:57:39.259Z,100037.28
2019-03-29T03:00:09.528Z,100043.31
2019-03-29T03:02:38.025Z,100036.57
2019-03-29T03:05:07.455Z,100036.21
2019-03-29T03:07:35.946Z,100040.57
2019-03-29T03:10:07.716Z,100045.56
2019-03-29T03:12:35.476Z,100049.53
2019-03-29T03:15:05.175Z,100049.64
2019-03-29T03:17:33.656Z,100051.51
2019-03-29T03:20:02.189Z,100051.25
2019-03-29T03:22:30.679Z,100054.98
2019-03-29T03:24:59.218Z,100049.14
2019-03-29T03:27:27.706Z,100049.97
2019-03-29T03:29:56.195Z,100054.05
2019-03-29T03:32:24.720Z,100052.13
2019-03-29T03:34:53.212Z,100052.07
2019-03-29T03:37:21.877Z,100061.80
2019-03-29T03:39:50.405Z,100057.59
2019-03-29T03:42:18.967Z,100058.53
2019-03-29T03:44:47.496Z,100065.69
2019-03-29T03:47:15.988Z,100061.97
2019-03-29T03:49:44.558Z,100061.29
2019-03-29T03:52:13.336Z,100054.83
2019-03-29T03:54:42.352Z,100055.70
2019-03-29T03:57:11.894Z,100060.94
2019-03-29T03:59:41.736Z,100062.91
2019-03-29T04:02:10.237Z,100066.28
2019-03-29T04:04:38.725Z,100062.17
2019-03-29T04:07:07.414Z,100065.24
2019-03-29T04:09:49.277Z,100075.14
2019-03-29T04:12:06.148Z,100078.70
2019-03-29T04:14:34.641Z,100075.77
2019-03-29T04:17:03.167Z,100071.36
2019-03-29T04:19:31.675Z,100069.87
2019-03-29T04:22:00.171Z,100076.45
2019-03-29T04:24:28.694Z,100066.19
2019-03-29T04:26:57.194Z,100064.00
2019-03-29T04:29:25.727Z,100059.19
2019-03-29T04:31:54.258Z,100050.61
2019-03-29T04:34:22.746Z,100054.59
2019-03-29T04:36:51.231Z,100062.31
2019-03-29T04:39:19.758Z,100055.09
2019-03-29T04:41:48.251Z,100056.96
2019-03-29T04:44:16.785Z,100059.31
2019-03-29T04:46:45.276Z,100055.58
2019-03-29T04:49:13.779Z,100057.96
2019-03-29T04:51:42.304Z,100054.47
2019-03-29T04:54:10.830Z,100061.45
2019-03-29T04:56:39.348Z,100069.91
2019-03-29T04:59:07.837Z,100070.44
2019-03-29T05:01:36.364Z,100072.27
2019-03-29T05:04:04.932Z,100070.97
2019-03-29T05:06:33.428Z,100060.33
2019-03-29T05:09:01.930Z,100069.22
2019-03-29T05:11:30.415Z,100078.75
2019-03-29T05:13:58.926Z,100081.08
2019-03-29T05:16:27.450Z,100081.66
2019-03-29T05:18:55.950Z,100081.06
2019-03-29T05:21:24.440Z,100078.71
2019-03-29T05:23:52.972Z,100087.99
2019-03-29T05:26:21.463Z,100098.77
2019-03-29T05:28:49.957Z,100096.36
2019-03-29T05:31:18.494Z,100096.22
2019-03-29T05:33:46.985Z,100090.73
2019-03-29T05:36:15.490Z,100089.53
2019-03-29T05:38:43.990Z,100093.36
2019-03-29T05:41:12.602Z,100089.04
2019-03-29T05:43:41.111Z,100082.70
2019-03-29T05:46:09.595Z,100083.88
2019-03-29T05:48:38.099Z,100079.30
2019-03-29T05:51:06.597Z,100084.70
2019-03-29T05:53:36.674Z,100087.51
2019-03-29T05:56:05.168Z,100084.53
2019-03-29T05:58:33.663Z,100084.94
2019-03-29T06:01:02.170Z,100084.98
2019-03-29T06:03:30.672Z,100088.37
2019-03-29T06:05:59.165Z,100080.27
2019-03-29T06:08:27.668Z,100070.09
2019-03-29T06:10:56.166Z,100064.17
2019-03-29T06:13:24.689Z,100058.15
2019-03-29T06:15:53.181Z,100057.72
2019-03-29T06:18:21.699Z,100064.94
2019-03-29T06:20:51.131Z,100062.80
2019-03-29T06:23:19.657Z,100067.43
2019-03-29T06:25:48.155Z,100070.43
2019-03-29T06:28:16.680Z,100076.83
2019-03-29T06:30:46.799Z,100072.58
2019-03-29T06:33:15.321Z,100067.75
2019-03-29T06:35:46.046Z,100068.60
2019-03-29T06:38:15.308Z,100068.44
2019-03-29T06:40:43.809Z,100070.53
2019-03-29T06:43:12.300Z,100076.94
2019-03-29T06:45:47.945Z,100078.38
2019-03-29T06:48:11.127Z,100081.95
2019-03-29T06:50:39.686Z,100084.52
2019-03-29T06:53:08.199Z,100086.05
2019-03-29T06:55:36.724Z,100095.40
2019-03-29T06:58:05.294Z,100097.59
2019-03-29T07:00:33.832Z,100099.97
2019-03-29T07:03:02.666Z,100097.35
2019-03-29T07:05:31.190Z,100101.64
2019-03-29T07:07:59.680Z,100111.95
2019-03-29T07:10:28.179Z,100110.45
2019-03-29T07:12:56.868Z,100104.66
2019-03-29T07:15:25.370Z,100104.53
2019-03-29T07:17:53.901Z,100106.11
2019-03-29T07:20:22.415Z,100094.92
2019-03-29T07:22:50.936Z,100101.37
2019-03-29T07:25:19.428Z,100108.88
2019-03-29T07:27:52.199Z,100112.49
2019-03-29T07:30:18.503Z,100107.06
2019-03-29T07:32:47.029Z,100107.35
2019-03-29T07:35:15.519Z,100110.05
2019-03-29T07:37:44.041Z,100104.31
2019-03-29T07:40:12.810Z,100103.78
2019-03-29T07:42:41.378Z,100108.48
2019-03-29T07:45:10.645Z,100095.78
2019-03-29T07:47:39.242Z,100099.34
2019-03-29T07:50:08.468Z,100101.84
2019-03-29T07:52:36.992Z,100101.28
2019-03-29T07:55:07.618Z,100098.20
2019-03-29T07:57:36.321Z,100093.41
2019-03-29T08:00:07.848Z,100094.76
2019-03-29T08:02:36.343Z,100108.28
2019-03-29T08:05:07.213Z,100103.95
2019-03-29T08:07:35.706Z,100098.81
2019-03-29T08:10:06.057Z,100096.48
2019-03-29T08:12:35.568Z,100092.70
2019-03-29T08:15:09.641Z,100094.95
2019-03-29T08:17:38.089Z,100089.28
2019-03-29T08:20:37.475Z,100091.98
2019-03-29T08:22:37.242Z,100083.11
2019-03-29T08:25:06.801Z,100077.70
2019-03-29T08:27:35.282Z,100071.95
2019-03-29T08:30:04.885Z,100058.09
2019-03-29T08:32:33.368Z,100072.98
2019-03-29T08:35:01.899Z,100072.55
2019-03-29T08:37:30.389Z,100065.84
2019-03-29T08:39:58.900Z,100076.51
2019-03-29T08:42:27.393Z,100077.91
2019-03-29T08:44:55.895Z,100069.30
2019-03-29T08:47:24.424Z,100064.38
2019-03-29T08:49:52.916Z,100068.52
2019-03-29T08:52:21.435Z,100065.13
2019-03-29T08:54:51.368Z,100069.12
2019-03-29T08:57:20.030Z,100064.28
2019-03-29T08:59:48.514Z,100067.09
2019-03-29T09:02:17.088Z,100061.23
2019-03-29T09:04:45.639Z,100060.09
2019-03-29T09:07:14.230Z,100054.55
2019-03-29T09:09:46.220Z,100069.63
2019-03-29T09:12:14.585Z,100067.45
2019-03-29T09:14:43.489Z,100062.41
2019-03-29T09:17:12.028Z,100051.77
2019-03-29T09:19:40.514Z,100053.36
2019-03-29T09:22:09.036Z,100054.92
2019-03-29T09:24:37.555Z,100057.75
2019-03-29T09:27:06.045Z,100060.33
2019-03-29T09:29:34.567Z,100049.19
2019-03-29T09:32:03.062Z,100044.22
2019-03-29T09:34:31.575Z,100052.64
2019-03-29T09:37:00.388Z,100049.55
2019-03-29T09:39:29.029Z,100047.89
2019-03-29T09:41:57.618Z,100046.54
2019-03-29T09:44:26.255Z,100040.92
2019-03-29T09:46:54.761Z,100041.56
2019-03-29T09:49:23.254Z,100044.19
2019-03-29T09:51:51.771Z,100038.91
2019-03-29T09:54:20.670Z,100036.91
2019-03-29T09:56:49.374Z,100048.05
2019-03-29T09:59:17.864Z,100039.59
2019-03-29T10:01:46.620Z,100050.56
2019-03-29T10:04:15.106Z,100044.27
2019-03-29T10:06:43.608Z,100039.86
2019-03-29T10:09:12.103Z,100045.09
2019-03-29T10:11:40.599Z,100032.56
2019-03-29T10:14:09.687Z,100038.91
2019-03-29T10:16:38.172Z,100033.13
2019-03-29T10:19:06.784Z,100035.54
2019-03-29T10:21:35.332Z,100038.03
2019-03-29T10:24:04.877Z,100037.88
2019-03-29T10:26:33.370Z,100037.40
2019-03-29T10:29:01.902Z,100029.69
2019-03-29T10:31:32.378Z,100028.43
2019-03-29T10:34:00.647Z,100029.30
2019-03-29T10:36:29.455Z,100030.45
2019-03-29T10:38:57.984Z,100026.14
2019-03-29T10:41:26.503Z,100035.19
2019-03-29T10:43:54.984Z,100034.39
2019-03-29T10:46:23.501Z,100046.22
2019-03-29T10:48:51.989Z,100043.53
2019-03-29T10:51:20.598Z,100043.20
2019-03-29T10:53:49.157Z,100042.53
2019-03-29T10:56:17.651Z,100037.69
2019-03-29T10:58:46.147Z,100034.97
2019-03-29T11:01:14.682Z,100030.95
2019-03-29T11:03:44.514Z,100026.77
2019-03-29T11:06:13.031Z,100025.50
2019-03-29T11:08:43.581Z,100014.39
2019-03-29T11:11:11.823Z,100011.25
2019-03-29T11:13:41.118Z,100007.32
2019-03-29T11:16:09.971Z,100006.19
2019-03-29T11:18:38.563Z,100000.13
2019-03-29T11:21:07.194Z,100004.42
2019-03-29T11:23:35.709Z,99998.80
2019-03-29T11:26:04.363Z,99995.47
2019-03-29T11:28:32.960Z,100001.35
2019-03-29T11:31:01.487Z,100002.31
2019-03-29T11:33:30.021Z,100007.68
2019-03-29T11:35:58.508Z,100011.82
2019-03-29T11:38:27.072Z,100014.59
2019-03-29T11:40:55.553Z,100019.78
2019-03-29T11:43:27.095Z,100014.91
2019-03-29T11:45:54.344Z,100013.22
2019-03-29T11:48:22.865Z,100012.22
2019-03-29T11:50:51.455Z,100014.27
2019-03-29T11:53:19.949Z,100014.75
2019-03-29T11:55:48.460Z,100014.13
2019-03-29T11:58:16.950Z,100019.75
2019-03-29T12:00:45.502Z,100013.03
2019-03-29T12:03:14.575Z,100009.53
2019-03-29T12:05:43.222Z,100004.95
2019-03-29T12:08:11.706Z,100005.03
2019-03-29T12:10:40.207Z,99993.13
2019-03-29T12:13:10.092Z,99989.91
2019-03-29T12:15:39.023Z,99978.59
2019-03-29T12:18:07.583Z,99974.76
2019-03-29T12:20:36.944Z,99967.59
2019-03-29T12:23:05.530Z,99965.94
2019-03-29T12:25:34.021Z,99974.66
2019-03-29T12:28:02.535Z,99960.51
2019-03-29T12:30:32.438Z,99957.89
2019-03-29T12:33:01.138Z,99953.22
2019-03-29T12:35:29.630Z,99942.75
2019-03-29T12:37:58.232Z,99931.84
2019-03-29T12:40:26.797Z,99938.02
2019-03-29T12:42:55.284Z,99937.50
2019-03-29T12:45:23.791Z,99930.91
2019-03-29T12:47:52.271Z,99937.25
2019-03-29T12:50:20.770Z,99938.30
2019-03-29T12:52:49.260Z,99926.98
2019-03-29T12:55:18.132Z,99917.16
2019-03-29T12:57:46.615Z,99909.66
2019-03-29T13:00:15.632Z,99901.53
2019-03-29T13:02:44.147Z,99895.95
2019-03-29T13:05:12.967Z,99892.80
2019-03-29T13:07:41.475Z,99889.91
2019-03-29T13:10:11.092Z,99881.67
2019-03-29T13:12:39.570Z,99883.20
2019-03-29T13:15:08.814Z,99873.23
2019-03-29T13:17:37.673Z,99870.16
2019-03-29T13:20:09.427Z,99879.25
2019-03-29T13:22:37.914Z,99869.44
2019-03-29T13:25:07.813Z,99867.39
2019-03-29T13:27:36.572Z,99862.85
2019-03-29T13:30:08.474Z,99856.22
2019-03-29T13:32:36.226Z,99861.31
2019-03-29T13:35:06.700Z,99851.77
2019-03-29T13:37:35.181Z,99853.02
2019-03-29T13:40:05.008Z,99850.94
2019-03-29T13:42:33.711Z,99843.38
2019-03-29T13:45:02.229Z,99847.02
2019-03-29T13:47:30.729Z,99853.66
2019-03-29T13:49:59.278Z,99848.95
2019-03-29T13:52:27.783Z,99841.31
2019-03-29T13:54:56.263Z,99846.13
2019-03-29T13:57:25.930Z,99851.14
2019-03-29T13:59:54.411Z,99844.03
2019-03-29T14:02:22.935Z,99854.87
2019-03-29T14:04:51.415Z,99843.31
2019-03-29T14:07:19.929Z,99838.67
2019-03-29T14:09:48.413Z,99841.69
2019-03-29T14:12:16.949Z,99834.53
2019-03-29T14:14:45.503Z,99827.48
2019-03-29T14:17:13.988Z,99832.70
2019-03-29T14:19:42.503Z,99815.66
2019-03-29T14:22:11.004Z,99816.09
2019-03-29T14:24:39.507Z,99816.96
2019-03-29T14:27:07.988Z,99809.80
2019-03-29T14:29:36.508Z,99803.95
2019-03-29T14:32:05.078Z,99796.95
2019-03-29T14:34:33.558Z,99799.11
2019-03-29T14:37:02.076Z,99786.29
2019-03-29T14:39:30.563Z,99787.23
2019-03-29T14:41:59.085Z,99778.14
2019-03-29T14:44:27.572Z,99772.70
2019-03-29T14:46:56.089Z,99774.36
2019-03-29T14:49:24.610Z,99770.55
2019-03-29T14:51:53.221Z,99769.52
2019-03-29T14:54:21.818Z,99765.43
2019-03-29T14:56:50.328Z,99772.33
2019-03-29T14:59:18.893Z,99763.16
2019-03-29T15:01:47.380Z,99766.70
2019-03-29T15:04:15.881Z,99764.67
2019-03-29T15:06:44.633Z,99759.88
2019-03-29T15:09:13.117Z,99765.00
2019-03-29T15:11:43.449Z,99761.20
2019-03-29T15:14:11.895Z,99763.15
2019-03-29T15:16:40.418Z,99757.95
2019-03-29T15:19:08.908Z,99757.30
2019-03-29T15:21:37.424Z,99759.88
2019-03-29T15:24:05.923Z,99758.40
2019-03-29T15:26:34.402Z,99752.18
2019-03-29T15:29:03.016Z,99760.93
2019-03-29T15:31:31.486Z,99760.08
2019-03-29T15:33:59.982Z,99760.35
2019-03-29T15:36:28.471Z,99758.30
2019-03-29T15:38:56.978Z,99756.47
2019-03-29T15:41:25.507Z,99746.75
2019-03-29T15:43:54.025Z,99744.96
2019-03-29T15:46:22.564Z,99738.72
2019-03-29T15:48:51.148Z,99743.17
2019-03-29T15:51:19.653Z,99738.38
2019-03-29T15:53:48.147Z,99743.13
2019-03-29T15:56:16.673Z,99739.00
2019-03-29T15:58:45.868Z,99739.84
2019-03-29T16:01:14.487Z,99728.89
2019-03-29T16:03:42.977Z,99735.10
2019-03-29T16:06:11.490Z,99732.13
2019-03-29T16:08:40.064Z,99733.79
2019-03-29T16:11:09.244Z,99726.63
2019-03-29T16:13:38.183Z,99726.05
2019-03-29T16:16:06.666Z,99731.06
2019-03-29T16:18:35.151Z,99737.88
2019-03-29T16:21:05.229Z,99731.87
2019-03-29T16:23:33.749Z,99731.06
2019-03-29T16:26:03.263Z,99729.71
2019-03-29T16:28:31.839Z,99731.33
2019-03-29T16:31:00.513Z,99728.02
2019-03-29T16:33:29.005Z,99725.09
2019-03-29T16:35:57.528Z,99724.52
2019-03-29T16:38:26.019Z,99718.83
2019-03-29T16:40:54.539Z,99717.09
2019-03-29T16:43:24.656Z,99714.62
2019-03-29T16:45:53.190Z,99713.63
2019-03-29T16:48:21.681Z,99707.63
2019-03-29T16:50:50.216Z,99703.63
2019-03-29T16:53:18.708Z,99708.69
2019-03-29T16:55:47.234Z,99708.63
2019-03-29T16:58:15.753Z,99711.50
2019-03-29T17:00:44.240Z,99701.11
2019-03-29T17:03:12.832Z,99706.33
2019-03-29T17:05:42.220Z,99703.64
2019-03-29T17:08:10.919Z,99696.90
2019-03-29T17:10:39.415Z,99696.86
2019-03-29T17:13:07.897Z,99697.83
2019-03-29T17:15:36.432Z,99697.63
2019-03-29T17:18:05.702Z,99699.52
2019-03-29T17:20:34.214Z,99699.25
2019-03-29T17:23:02.736Z,99696.92
2019-03-29T17:25:31.231Z,99698.02
2019-03-29T17:27:59.742Z,99692.58
2019-03-29T17:30:37.791Z,99699.34
2019-03-29T17:33:06.383Z,99697.79
2019-03-29T17:35:34.950Z,99698.35
2019-03-29T17:38:03.445Z,99698.45
2019-03-29T17:40:32.065Z,99696.44
2019-03-29T17:43:00.704Z,99699.27
2019-03-29T17:45:29.262Z,99696.94
2019-03-29T17:47:57.757Z,99701.20
2019-03-29T17:50:26.254Z,99710.09
2019-03-29T17:52:54.778Z,99707.95
2019-03-29T17:55:23.272Z,99702.84
2019-03-29T17:57:51.809Z,99710.84
2019-03-29T18:00:22.005Z,99708.26
2019-03-29T18:02:50.530Z,99705.22
2019-03-29T18:05:19.035Z,99705.09
2019-03-29T18:07:48.427Z,99712.20
2019-03-29T18:10:18.562Z,99706.71
2019-03-29T18:12:47.054Z,99712.48
2019-03-29T18:15:16.129Z,99707.75
2019-03-29T18:17:44.844Z,99704.44
2019-03-29T18:20:15.209Z,99709.06
2019-03-29T18:22:43.766Z,99704.42
2019-03-29T18:25:12.296Z,99710.17
2019-03-29T18:27:40.797Z,99706.38
2019-03-29T18:30:10.955Z,99706.66
2019-03-29T18:32:39.516Z,99699.80
2019-03-29T18:35:08.460Z,99712.04
2019-03-29T18:37:37.489Z,99709.92
2019-03-29T18:40:08.094Z,99707.74
2019-03-29T18:42:36.588Z,99703.66
2019-03-29T18:45:07.226Z,99701.20
2019-03-29T18:47:35.715Z,99700.18
2019-03-29T18:50:06.251Z,99698.58
2019-03-29T18:52:34.746Z,99702.16
2019-03-29T18:55:03.746Z,99692.20
2019-03-29T18:57:32.250Z,99697.20
2019-03-29T19:00:00.775Z,99697.44
2019-03-29T19:02:29.266Z,99700.00
2019-03-29T19:04:57.787Z,99697.86
2019-03-29T19:07:30.038Z,99697.08
2019-03-29T19:09:58.626Z,99698.23
2019-03-29T19:12:27.486Z,99696.64
2019-03-29T19:14:55.987Z,99691.91
2019-03-29T19:17:26.124Z,99693.58
2019-03-29T19:19:54.640Z,99690.23
2019-03-29T19:22:23.171Z,99698.80
2019-03-29T19:24:51.751Z,99695.30
2019-03-29T19:27:20.296Z,99694.16
2019-03-29T19:29:48.800Z,99692.72
2019-03-29T19:32:17.318Z,99694.73
2019-03-29T19:34:45.900Z,99689.22
2019-03-29T19:37:16.046Z,99692.89
2019-03-29T19:39:44.552Z,99689.03
2019-03-29T19:42:16.529Z,99688.77
2019-03-29T19:44:43.283Z,99687.42
2019-03-29T19:47:13.807Z,99690.77
2019-03-29T19:49:42.051Z,99685.00
2019-03-29T19:52:10.606Z,99686.45
2019-03-29T19:54:39.229Z,99687.09
2019-03-29T19:57:07.892Z,99682.49
2019-03-29T19:59:36.395Z,99678.33
2019-03-29T20:02:04.982Z,99674.16
2019-03-29T20:04:33.481Z,99673.30
2019-03-29T20:07:01.989Z,99670.02
2019-03-29T20:09:30.529Z,99672.20
2019-03-29T20:11:59.041Z,99664.78
2019-03-29T20:14:27.538Z,99670.83
2019-03-29T20:16:56.059Z,99666.73
2019-03-29T20:19:25.213Z,99668.39
2019-03-29T20:21:53.899Z,99668.14
2019-03-29T20:24:24.748Z,99669.52
2019-03-29T20:26:53.266Z,99667.30
2019-03-29T20:29:21.752Z,99669.27
2019-03-29T20:31:50.837Z,99667.58
2019-03-29T20:34:19.323Z,99663.19
2019-03-29T20:36:47.914Z,99660.68
2019-03-29T20:39:16.415Z,99656.58
2019-03-29T20:41:44.972Z,99657.95
2019-03-29T20:44:13.455Z,99654.38
2019-03-29T20:46:44.015Z,99653.84
2019-03-29T20:49:12.202Z,99649.72
2019-03-29T20:51:40.757Z,99656.89
2019-03-29T20:54:09.242Z,99647.52
2019-03-29T20:56:37.741Z,99646.70
2019-03-29T20:59:06.320Z,99641.48
2019-03-29T21:01:34.837Z,99634.34
2019-03-29T21:04:03.333Z,99636.26
2019-03-29T21:06:31.847Z,99639.27
2019-03-29T21:09:00.350Z,99635.16
2019-03-29T21:11:28.836Z,99632.66
2019-03-29T21:13:57.359Z,99628.22
2019-03-29T21:16:25.874Z,99628.80
2019-03-29T21:18:54.357Z,99623.83
2019-03-29T21:21:24.521Z,99629.67
2019-03-29T21:23:53.007Z,99628.57
2019-03-29T21:26:21.609Z,99631.32
2019-03-29T21:28:52.739Z,99629.69
2019-03-29T21:31:20.306Z,99634.91
2019-03-29T21:33:48.867Z,99631.61
2019-03-29T21:36:18.143Z,99622.81
2019-03-29T21:38:46.939Z,99626.40
2019-03-29T21:41:15.414Z,99623.65
2019-03-29T21:43:44.005Z,99620.59
2019-03-29T21:46:12.490Z,99616.20
2019-03-29T21:48:41.012Z,99616.21
2019-03-29T21:51:09.503Z,99610.44
2019-03-29T21:53:38.026Z,99612.09
2019-03-29T21:56:06.585Z,99615.95
2019-03-29T21:58:35.105Z,99612.91
2019-03-29T22:01:03.594Z,99611.00
2019-03-29T22:03:32.197Z,99607.14
2019-03-29T22:06:00.679Z,99606.86
2019-03-29T22:08:29.188Z,99607.09
2019-03-29T22:10:57.676Z,99608.69
2019-03-29T22:13:26.161Z,99610.13
2019-03-29T22:15:54.657Z,99609.31
2019-03-29T22:18:36.833Z,99602.15
2019-03-29T22:20:53.423Z,99605.45
2019-03-29T22:23:21.908Z,99602.46
2019-03-29T22:25:50.418Z,99601.91
2019-03-29T22:28:18.943Z,99602.72
2019-03-29T22:30:47.430Z,99606.56
2019-03-29T22:33:15.958Z,99597.20
2019-03-29T22:35:45.984Z,99598.59
2019-03-29T22:38:14.506Z,99587.02
2019-03-29T22:40:43.012Z,99592.50
2019-03-29T22:43:11.523Z,99585.64
2019-03-29T22:45:40.033Z,99592.48
2019-03-29T22:48:08.627Z,99591.13
2019-03-29T22:50:37.194Z,99585.91
2019-03-29T22:53:05.710Z,99592.80
2019-03-29T22:55:34.194Z,99588.95
2019-03-29T22:58:02.709Z,99585.36
2019-03-29T23:00:38.673Z,99582.05
2019-03-29T23:03:08.343Z,99582.59
2019-03-29T23:05:37.176Z,99584.50
2019-03-29T23:08:06.021Z,99584.77
2019-03-29T23:10:34.522Z,99582.57
2019-03-29T23:13:03.210Z,99577.08
2019-03-29T23:15:31.936Z,99577.31
2019-03-29T23:18:00.440Z,99573.71
2019-03-29T23:20:28.943Z,99577.02
2019-03-29T23:22:57.611Z,99571.00
2019-03-29T23:25:26.104Z,99566.56
2019-03-29T23:27:54.973Z,99571.00
2019-03-29T23:30:23.698Z,99570.72
2019-03-29T23:32:52.225Z,99566.88
2019-03-29T23:35:20.710Z,99560.82
2019-03-29T23:37:49.220Z,99568.50
2019-03-29T23:40:17.778Z,99562.51
2019-03-29T23:42:46.266Z,99566.92
2019-03-29T23:45:14.856Z,99563.70
2019-03-29T23:47:43.346Z,99561.30
2019-03-29T23:50:12.729Z,99551.14
2019-03-29T23:52:41.211Z,99564.61
2019-03-29T23:55:09.767Z,99559.33
2019-03-29T23:57:38.272Z,99553.84
